sensor_id;sensor_type;location;lat;lon;timestamp;pressure;altitude;pressure_sealevel;temperature;humidity
76285;BME280;71676;50.998;7.098;2023-09-07T00:00:31;101299.56;;;18.80;52.92
76285;BME280;71676;50.998;7.098;2023-09-07T00:02:57;101301.31;;;18.81;53.58
76285;BME280;71676;50.998;7.098;2023-09-07T00:05:25;101297.84;;;18.80;53.38
76285;BME280;71676;50.998;7.098;2023-09-07T00:07:53;101301.44;;;18.73;53.32
76285;BME280;71676;50.998;7.098;2023-09-07T00:10:21;101304.13;;;18.70;53.87
76285;BME280;71676;50.998;7.098;2023-09-07T00:12:49;101308.53;;;18.67;54.20
76285;BME280;71676;50.998;7.098;2023-09-07T00:15:16;101286.16;;;18.49;54.14
76285;BME280;71676;50.998;7.098;2023-09-07T00:17:44;101305.28;;;18.51;53.79
76285;BME280;71676;50.998;7.098;2023-09-07T00:20:11;101303.53;;;18.52;54.17
76285;BME280;71676;50.998;7.098;2023-09-07T00:22:39;101304.44;;;18.49;54.46
76285;BME280;71676;50.998;7.098;2023-09-07T00:25:08;101254.38;;;18.25;53.75
76285;BME280;71676;50.998;7.098;2023-09-07T00:27:35;101303.63;;;18.47;54.03
76285;BME280;71676;50.998;7.098;2023-09-07T00:30:02;101282.91;;;18.37;54.15
76285;BME280;71676;50.998;7.098;2023-09-07T00:32:29;101297.53;;;18.47;54.11
76285;BME280;71676;50.998;7.098;2023-09-07T00:34:56;101300.16;;;18.47;54.29
76285;BME280;71676;50.998;7.098;2023-09-07T00:37:22;101301.03;;;18.46;54.29
76285;BME280;71676;50.998;7.098;2023-09-07T00:39:49;101297.59;;;18.44;54.22
76285;BME280;71676;50.998;7.098;2023-09-07T00:42:19;101293.25;;;18.43;53.97
76285;BME280;71676;50.998;7.098;2023-09-07T00:44:45;101295.09;;;18.38;54.04
76285;BME280;71676;50.998;7.098;2023-09-07T00:47:13;101292.53;;;18.33;54.80
76285;BME280;71676;50.998;7.098;2023-09-07T00:49:40;101290.84;;;18.31;54.50
76285;BME280;71676;50.998;7.098;2023-09-07T00:52:08;101294.41;;;18.27;54.88
76285;BME280;71676;50.998;7.098;2023-09-07T00:54:34;101290.13;;;18.21;54.96
76285;BME280;71676;50.998;7.098;2023-09-07T00:57:04;101297.97;;;18.21;54.87
76285;BME280;71676;50.998;7.098;2023-09-07T00:59:33;101297.13;;;18.18;54.73
76285;BME280;71676;50.998;7.098;2023-09-07T01:02:00;101301.56;;;18.13;55.02
76285;BME280;71676;50.998;7.098;2023-09-07T01:04:27;101291.13;;;18.11;54.60
76285;BME280;71676;50.998;7.098;2023-09-07T01:06:57;101293.78;;;18.10;54.81
76285;BME280;71676;50.998;7.098;2023-09-07T01:09:30;101289.50;;;18.06;55.06
76285;BME280;71676;50.998;7.098;2023-09-07T01:11:58;101287.75;;;18.05;55.12
76285;BME280;71676;50.998;7.098;2023-09-07T01:14:25;101280.88;;;18.01;54.63
76285;BME280;71676;50.998;7.098;2023-09-07T01:16:53;101283.50;;;17.99;54.83
76285;BME280;71676;50.998;7.098;2023-09-07T01:19:20;101280.97;;;17.95;54.74
76285;BME280;71676;50.998;7.098;2023-09-07T01:21:48;101273.19;;;17.93;54.94
76285;BME280;71676;50.998;7.098;2023-09-07T01:24:15;101278.41;;;17.90;55.22
76285;BME280;71676;50.998;7.098;2023-09-07T01:26:42;101279.34;;;17.86;55.43
76285;BME280;71676;50.998;7.098;2023-09-07T01:29:09;101276.75;;;17.83;55.48
76285;BME280;71676;50.998;7.098;2023-09-07T01:31:36;101279.44;;;17.79;55.52
76285;BME280;71676;50.998;7.098;2023-09-07T01:34:03;101276.91;;;17.73;55.90
76285;BME280;71676;50.998;7.098;2023-09-07T01:36:31;101277.81;;;17.70;55.65
76285;BME280;71676;50.998;7.098;2023-09-07T01:39:00;101276.13;;;17.68;55.57
76285;BME280;71676;50.998;7.098;2023-09-07T01:41:26;101278.75;;;17.64;55.90
76285;BME280;71676;50.998;7.098;2023-09-07T01:43:54;101280.56;;;17.61;55.46
76285;BME280;71676;50.998;7.098;2023-09-07T01:46:21;101277.09;;;17.59;55.61
76285;BME280;71676;50.998;7.098;2023-09-07T01:48:47;101279.81;;;17.51;55.83
76285;BME280;71676;50.998;7.098;2023-09-07T01:51:14;101285.94;;;17.47;56.14
76285;BME280;71676;50.998;7.098;2023-09-07T01:53:40;101294.63;;;17.48;56.04
76285;BME280;71676;50.998;7.098;2023-09-07T01:56:08;101285.09;;;17.44;56.27
76285;BME280;71676;50.998;7.098;2023-09-07T01:58:35;101285.16;;;17.41;56.03
76285;BME280;71676;50.998;7.098;2023-09-07T02:01:02;101286.97;;;17.34;56.45
76285;BME280;71676;50.998;7.098;2023-09-07T02:03:29;101284.38;;;17.34;56.25
76285;BME280;71676;50.998;7.098;2023-09-07T02:05:55;101290.47;;;17.33;56.17
76285;BME280;71676;50.998;7.098;2023-09-07T02:08:22;101282.66;;;17.32;56.51
76285;BME280;71676;50.998;7.098;2023-09-07T02:10:48;101285.34;;;17.26;56.43
76285;BME280;71676;50.998;7.098;2023-09-07T02:13:16;101285.34;;;17.26;56.39
76285;BME280;71676;50.998;7.098;2023-09-07T02:15:43;101283.63;;;17.25;56.31
76285;BME280;71676;50.998;7.098;2023-09-07T02:18:10;101291.47;;;17.22;56.35
76285;BME280;71676;50.998;7.098;2023-09-07T02:20:36;101290.63;;;17.18;56.21
76285;BME280;71676;50.998;7.098;2023-09-07T02:23:03;101292.44;;;17.16;56.49
76285;BME280;71676;50.998;7.098;2023-09-07T02:25:30;101279.41;;;17.12;56.78
76285;BME280;71676;50.998;7.098;2023-09-07T02:27:56;101287.25;;;17.10;56.45
76285;BME280;71676;50.998;7.098;2023-09-07T02:30:24;101280.34;;;17.08;56.82
76285;BME280;71676;50.998;7.098;2023-09-07T02:32:51;101279.47;;;17.06;57.01
76285;BME280;71676;50.998;7.098;2023-09-07T02:35:18;101276.91;;;17.03;56.86
76285;BME280;71676;50.998;7.098;2023-09-07T02:37:45;101275.25;;;16.94;56.65
76285;BME280;71676;50.998;7.098;2023-09-07T02:40:11;101267.41;;;16.96;57.00
76285;BME280;71676;50.998;7.098;2023-09-07T02:42:38;101278.69;;;16.96;57.19
76285;BME280;71676;50.998;7.098;2023-09-07T02:45:05;101283.09;;;16.91;57.24
76285;BME280;71676;50.998;7.098;2023-09-07T02:47:34;101274.47;;;16.86;56.96
76285;BME280;71676;50.998;7.098;2023-09-07T02:50:00;101277.94;;;16.87;57.01
76285;BME280;71676;50.998;7.098;2023-09-07T02:52:27;101279.69;;;16.83;57.26
76285;BME280;71676;50.998;7.098;2023-09-07T02:54:53;101279.72;;;16.82;57.11
76285;BME280;71676;50.998;7.098;2023-09-07T02:57:20;101276.25;;;16.81;57.19
76285;BME280;71676;50.998;7.098;2023-09-07T02:59:47;101278.06;;;16.75;57.16
76285;BME280;71676;50.998;7.098;2023-09-07T03:02:13;101272.84;;;16.73;57.47
76285;BME280;71676;50.998;7.098;2023-09-07T03:04:41;101272.88;;;16.72;57.66
76285;BME280;71676;50.998;7.098;2023-09-07T03:07:08;101272.06;;;16.68;57.56
76285;BME280;71676;50.998;7.098;2023-09-07T03:09:34;101248.78;;;16.52;57.34
76285;BME280;71676;50.998;7.098;2023-09-07T03:12:01;101275.59;;;16.61;57.15
76285;BME280;71676;50.998;7.098;2023-09-07T03:14:27;101271.28;;;16.56;57.88
76285;BME280;71676;50.998;7.098;2023-09-07T03:16:54;101273.91;;;16.57;57.92
76285;BME280;71676;50.998;7.098;2023-09-07T03:19:21;101279.09;;;16.56;57.56
76285;BME280;71676;50.998;7.098;2023-09-07T03:21:49;101270.50;;;16.49;57.63
76285;BME280;71676;50.998;7.098;2023-09-07T03:24:15;101274.81;;;16.52;57.59
76285;BME280;71676;50.998;7.098;2023-09-07T03:26:42;101282.66;;;16.49;58.10
76285;BME280;71676;50.998;7.098;2023-09-07T03:29:09;101280.94;;;16.46;57.96
76285;BME280;71676;50.998;7.098;2023-09-07T03:31:35;101273.19;;;16.40;57.72
76285;BME280;71676;50.998;7.098;2023-09-07T03:34:02;101271.44;;;16.41;57.85
76285;BME280;71676;50.998;7.098;2023-09-07T03:36:29;101271.47;;;16.38;58.04
76285;BME280;71676;50.998;7.098;2023-09-07T03:38:57;101268.91;;;16.35;58.18
76285;BME280;71676;50.998;7.098;2023-09-07T03:41:23;101268.06;;;16.30;58.26
76285;BME280;71676;50.998;7.098;2023-09-07T03:43:55;101262.03;;;16.26;57.74
76285;BME280;71676;50.998;7.098;2023-09-07T03:46:22;101225.75;;;16.03;58.30
76285;BME280;71676;50.998;7.098;2023-09-07T03:48:48;101238.72;;;16.08;58.16
76285;BME280;71676;50.998;7.098;2023-09-07T03:51:15;101267.25;;;16.20;58.19
76285;BME280;71676;50.998;7.098;2023-09-07T03:53:41;101265.53;;;16.16;57.86
76285;BME280;71676;50.998;7.098;2023-09-07T03:56:09;101254.28;;;16.11;58.49
76285;BME280;71676;50.998;7.098;2023-09-07T03:58:36;101256.03;;;16.12;58.67
76285;BME280;71676;50.998;7.098;2023-09-07T04:01:03;101262.09;;;16.09;58.11
76285;BME280;71676;50.998;7.098;2023-09-07T04:03:29;101259.53;;;16.06;58.21
76285;BME280;71676;50.998;7.098;2023-09-07T04:05:57;101263.91;;;16.03;58.48
76285;BME280;71676;50.998;7.098;2023-09-07T04:08:23;101261.31;;;16.00;58.03
76285;BME280;71676;50.998;7.098;2023-09-07T04:10:50;101266.53;;;15.97;58.66
76285;BME280;71676;50.998;7.098;2023-09-07T04:13:18;101262.25;;;15.93;58.45
76285;BME280;71676;50.998;7.098;2023-09-07T04:15:45;101263.09;;;15.92;58.92
76285;BME280;71676;50.998;7.098;2023-09-07T04:18:12;101270.06;;;15.93;59.27
76285;BME280;71676;50.998;7.098;2023-09-07T04:20:40;101270.91;;;15.92;59.43
76285;BME280;71676;50.998;7.098;2023-09-07T04:23:07;101270.94;;;15.87;59.01
76285;BME280;71676;50.998;7.098;2023-09-07T04:25:33;101262.31;;;15.82;59.24
76285;BME280;71676;50.998;7.098;2023-09-07T04:28:00;101264.91;;;15.81;59.37
76285;BME280;71676;50.998;7.098;2023-09-07T04:30:28;101246.78;;;15.73;59.35
76285;BME280;71676;50.998;7.098;2023-09-07T04:32:55;101271.88;;;15.82;58.87
76285;BME280;71676;50.998;7.098;2023-09-07T04:35:27;101264.91;;;15.81;59.34
76285;BME280;71676;50.998;7.098;2023-09-07T04:37:54;101241.63;;;15.60;59.38
76285;BME280;71676;50.998;7.098;2023-09-07T04:40:21;101271.00;;;15.78;59.38
76285;BME280;71676;50.998;7.098;2023-09-07T04:42:48;101253.75;;;15.65;59.34
76285;BME280;71676;50.998;7.098;2023-09-07T04:45:15;101268.44;;;15.74;59.42
76285;BME280;71676;50.998;7.098;2023-09-07T04:47:44;101270.19;;;15.73;59.04
76285;BME280;71676;50.998;7.098;2023-09-07T04:50:10;101270.19;;;15.70;59.39
76285;BME280;71676;50.998;7.098;2023-09-07T04:52:37;101268.47;;;15.65;59.62
76285;BME280;71676;50.998;7.098;2023-09-07T04:55:05;101263.31;;;15.62;59.57
76285;BME280;71676;50.998;7.098;2023-09-07T04:57:32;101275.44;;;15.66;59.38
76285;BME280;71676;50.998;7.098;2023-09-07T04:59:58;101276.28;;;15.65;59.71
76285;BME280;71676;50.998;7.098;2023-09-07T05:02:25;101274.56;;;15.62;59.42
76285;BME280;71676;50.998;7.098;2023-09-07T05:04:53;101260.75;;;15.54;59.45
76285;BME280;71676;50.998;7.098;2023-09-07T05:07:19;101271.97;;;15.62;59.90
76285;BME280;71676;50.998;7.098;2023-09-07T05:09:46;101278.03;;;15.64;59.62
76285;BME280;71676;50.998;7.098;2023-09-07T05:12:14;101278.00;;;15.63;59.24
76285;BME280;71676;50.998;7.098;2023-09-07T05:14:43;101272.84;;;15.60;59.85
76285;BME280;71676;50.998;7.098;2023-09-07T05:17:10;101273.69;;;15.62;58.83
76285;BME280;71676;50.998;7.098;2023-09-07T05:19:37;101270.25;;;15.58;59.75
76285;BME280;71676;50.998;7.098;2023-09-07T05:22:05;101274.59;;;15.61;58.63
76285;BME280;71676;50.998;7.098;2023-09-07T05:24:31;101277.16;;;15.67;58.80
76285;BME280;71676;50.998;7.098;2023-09-07T05:26:58;101280.63;;;15.63;58.48
76285;BME280;71676;50.998;7.098;2023-09-07T05:29:25;101288.41;;;15.63;58.45
76285;BME280;71676;50.998;7.098;2023-09-07T05:31:51;101286.66;;;15.68;58.81
76285;BME280;71676;50.998;7.098;2023-09-07T05:34:18;101291.84;;;15.71;59.42
76285;BME280;71676;50.998;7.098;2023-09-07T05:36:44;101294.44;;;15.74;59.42
76285;BME280;71676;50.998;7.098;2023-09-07T05:39:12;101297.03;;;15.78;59.31
76285;BME280;71676;50.998;7.098;2023-09-07T05:41:39;101296.97;;;15.84;58.88
76285;BME280;71676;50.998;7.098;2023-09-07T05:44:05;101293.50;;;15.85;58.78
76285;BME280;71676;50.998;7.098;2023-09-07T05:46:32;101301.28;;;15.88;58.70
76285;BME280;71676;50.998;7.098;2023-09-07T05:48:59;101297.81;;;15.91;59.06
76285;BME280;71676;50.998;7.098;2023-09-07T05:51:25;101300.38;;;15.94;58.26
76285;BME280;71676;50.998;7.098;2023-09-07T05:53:54;101296.03;;;15.97;58.18
76285;BME280;71676;50.998;7.098;2023-09-07T05:56:22;101300.28;;;16.09;58.34
76285;BME280;71676;50.998;7.098;2023-09-07T05:58:48;101296.78;;;16.11;58.20
76285;BME280;71676;50.998;7.098;2023-09-07T06:01:15;101295.91;;;16.12;58.22
76285;BME280;71676;50.998;7.098;2023-09-07T06:03:42;101299.34;;;16.16;59.16
76285;BME280;71676;50.998;7.098;2023-09-07T06:06:08;101300.22;;;16.18;59.24
76285;BME280;71676;50.998;7.098;2023-09-07T06:08:35;101292.50;;;16.09;59.92
76285;BME280;71676;50.998;7.098;2023-09-07T06:11:01;101305.41;;;16.21;59.85
76285;BME280;71676;50.998;7.098;2023-09-07T06:13:29;101303.66;;;16.21;60.05
76285;BME280;71676;50.998;7.098;2023-09-07T06:15:56;101314.97;;;16.25;59.61
76285;BME280;71676;50.998;7.098;2023-09-07T06:18:24;101309.72;;;16.30;59.31
76285;BME280;71676;50.998;7.098;2023-09-07T06:20:50;101315.75;;;16.30;60.06
76285;BME280;71676;50.998;7.098;2023-09-07T06:23:17;101276.84;;;16.12;60.08
76285;BME280;71676;50.998;7.098;2023-09-07T06:25:44;101320.91;;;16.39;60.00
76285;BME280;71676;50.998;7.098;2023-09-07T06:28:10;101319.19;;;16.41;60.28
76285;BME280;71676;50.998;7.098;2023-09-07T06:30:39;101324.31;;;16.49;59.79
76285;BME280;71676;50.998;7.098;2023-09-07T06:33:06;101323.41;;;16.53;59.96
76285;BME280;71676;50.998;7.098;2023-09-07T06:35:33;101324.19;;;16.61;59.52
76285;BME280;71676;50.998;7.098;2023-09-07T06:38:00;101331.81;;;16.83;60.12
76285;BME280;71676;50.998;7.098;2023-09-07T06:40:27;101329.91;;;16.99;58.38
76285;BME280;71676;50.998;7.098;2023-09-07T06:42:54;101329.91;;;17.02;57.94
76285;BME280;71676;50.998;7.098;2023-09-07T06:45:22;101333.31;;;17.07;59.37
76285;BME280;71676;50.998;7.098;2023-09-07T06:47:50;101307.41;;;16.92;59.50
76285;BME280;71676;50.998;7.098;2023-09-07T06:50:17;101332.41;;;17.12;59.07
76285;BME280;71676;50.998;7.098;2023-09-07T06:52:44;101335.84;;;17.16;58.88
76285;BME280;71676;50.998;7.098;2023-09-07T06:55:11;101336.66;;;17.22;59.28
76285;BME280;71676;50.998;7.098;2023-09-07T06:57:37;101341.75;;;17.33;59.45
76285;BME280;71676;50.998;7.098;2023-09-07T07:00:05;101338.19;;;17.40;59.29
76285;BME280;71676;50.998;7.098;2023-09-07T07:02:32;101341.59;;;17.46;59.91
76285;BME280;71676;50.998;7.098;2023-09-07T07:05:00;101344.09;;;17.54;59.47
76285;BME280;71676;50.998;7.098;2023-09-07T07:07:29;101339.69;;;17.59;59.11
76285;BME280;71676;50.998;7.098;2023-09-07T07:09:55;101340.47;;;17.66;59.96
76285;BME280;71676;50.998;7.098;2023-09-07T07:12:22;101348.19;;;17.75;59.45
76285;BME280;71676;50.998;7.098;2023-09-07T07:14:49;101346.31;;;17.86;59.07
76285;BME280;71676;50.998;7.098;2023-09-07T07:17:15;101356.63;;;17.96;58.65
76285;BME280;71676;50.998;7.098;2023-09-07T07:19:42;101353.84;;;18.08;59.60
76285;BME280;71676;50.998;7.098;2023-09-07T07:22:10;101351.94;;;18.18;59.04
76285;BME280;71676;50.998;7.098;2023-09-07T07:24:37;101351.72;;;18.33;59.06
76285;BME280;71676;50.998;7.098;2023-09-07T07:27:03;101344.53;;;18.47;59.04
76285;BME280;71676;50.998;7.098;2023-09-07T07:29:30;101347.81;;;18.59;58.66
76285;BME280;71676;50.998;7.098;2023-09-07T07:31:57;101351.09;;;18.72;58.81
76285;BME280;71676;50.998;7.098;2023-09-07T07:34:23;101347.34;;;18.88;57.76
76285;BME280;71676;50.998;7.098;2023-09-07T07:36:50;101359.31;;;19.01;57.85
76285;BME280;71676;50.998;7.098;2023-09-07T07:39:18;101358.19;;;19.14;57.52
76285;BME280;71676;50.998;7.098;2023-09-07T07:41:46;101361.31;;;19.33;57.84
76285;BME280;71676;50.998;7.098;2023-09-07T07:44:12;101354.84;;;19.53;57.82
76285;BME280;71676;50.998;7.098;2023-09-07T07:46:39;101347.44;;;19.73;58.27
76285;BME280;71676;50.998;7.098;2023-09-07T07:49:06;101345.19;;;19.96;57.80
76285;BME280;71676;50.998;7.098;2023-09-07T07:51:32;101343.63;;;20.27;55.83
76285;BME280;71676;50.998;7.098;2023-09-07T07:53:59;101342.91;;;20.56;56.47
76285;BME280;71676;50.998;7.098;2023-09-07T07:56:27;101344.75;;;20.89;51.30
76285;BME280;71676;50.998;7.098;2023-09-07T07:58:54;101340.38;;;21.20;49.35
76285;BME280;71676;50.998;7.098;2023-09-07T08:01:20;101343.28;;;21.42;46.57
76285;BME280;71676;50.998;7.098;2023-09-07T08:03:47;101341.59;;;21.70;46.30
76285;BME280;71676;50.998;7.098;2023-09-07T08:06:14;101334.63;;;21.98;46.80
76285;BME280;71676;50.998;7.098;2023-09-07T08:08:40;101313.41;;;22.04;47.41
76285;BME280;71676;50.998;7.098;2023-09-07T08:11:07;101338.75;;;22.34;47.89
76285;BME280;71676;50.998;7.098;2023-09-07T08:13:35;101338.75;;;22.60;45.41
76285;BME280;71676;50.998;7.098;2023-09-07T08:16:02;101337.06;;;22.58;43.76
76285;BME280;71676;50.998;7.098;2023-09-07T08:18:29;101332.88;;;22.78;46.00
76285;BME280;71676;50.998;7.098;2023-09-07T08:20:57;101334.41;;;22.85;44.26
76285;BME280;71676;50.998;7.098;2023-09-07T08:23:24;101330.06;;;23.09;42.24
76285;BME280;71676;50.998;7.098;2023-09-07T08:25:51;101324.41;;;23.44;45.97
76285;BME280;71676;50.998;7.098;2023-09-07T08:28:17;101326.84;;;23.72;42.03
76285;BME280;71676;50.998;7.098;2023-09-07T08:30:48;101322.03;;;23.83;42.14
76285;BME280;71676;50.998;7.098;2023-09-07T08:33:16;101324.00;;;24.01;43.25
76285;BME280;71676;50.998;7.098;2023-09-07T08:35:42;101329.03;;;24.28;42.14
76285;BME280;71676;50.998;7.098;2023-09-07T08:38:10;101331.09;;;24.42;42.61
76285;BME280;71676;50.998;7.098;2023-09-07T08:40:38;101331.09;;;24.64;41.31
76285;BME280;71676;50.998;7.098;2023-09-07T08:43:08;101325.75;;;24.65;38.80
76285;BME280;71676;50.998;7.098;2023-09-07T08:45:41;101322.22;;;24.86;39.68
76285;BME280;71676;50.998;7.098;2023-09-07T08:48:10;101322.97;;;25.08;39.24
76285;BME280;71676;50.998;7.098;2023-09-07T08:50:38;101322.66;;;25.36;41.04
76285;BME280;71676;50.998;7.098;2023-09-07T08:53:08;101323.97;;;25.64;40.17
76285;BME280;71676;50.998;7.098;2023-09-07T08:55:35;101321.09;;;25.88;38.35
76285;BME280;71676;50.998;7.098;2023-09-07T08:58:01;101317.41;;;25.92;39.23
76285;BME280;71676;50.998;7.098;2023-09-07T09:00:28;101317.00;;;25.62;37.19
76285;BME280;71676;50.998;7.098;2023-09-07T09:02:56;101303.59;;;26.04;38.73
76285;BME280;71676;50.998;7.098;2023-09-07T09:05:27;101318.09;;;26.14;37.39
76285;BME280;71676;50.998;7.098;2023-09-07T09:08:01;101314.94;;;25.68;37.01
76285;BME280;71676;50.998;7.098;2023-09-07T09:10:29;101318.56;;;26.22;37.09
76285;BME280;71676;50.998;7.098;2023-09-07T09:12:56;101319.88;;;26.32;36.32
76285;BME280;71676;50.998;7.098;2023-09-07T09:15:24;101316.59;;;26.44;35.41
76285;BME280;71676;50.998;7.098;2023-09-07T09:17:51;101308.16;;;26.88;37.80
76285;BME280;71676;50.998;7.098;2023-09-07T09:20:22;101312.72;;;27.35;36.54
76285;BME280;71676;50.998;7.098;2023-09-07T09:22:54;101306.41;;;27.70;35.53
76285;BME280;71676;50.998;7.098;2023-09-07T09:25:21;101304.44;;;27.89;35.99
76285;BME280;71676;50.998;7.098;2023-09-07T09:27:48;101302.38;;;27.78;34.67
76285;BME280;71676;50.998;7.098;2023-09-07T09:30:15;101300.63;;;27.94;34.82
76285;BME280;71676;50.998;7.098;2023-09-07T09:32:42;101304.06;;;28.41;35.88
76285;BME280;71676;50.998;7.098;2023-09-07T09:35:09;101311.13;;;28.57;34.92
76285;BME280;71676;50.998;7.098;2023-09-07T09:37:44;101297.75;;;28.88;33.38
76285;BME280;71676;50.998;7.098;2023-09-07T09:40:13;101295.56;;;28.80;33.92
76285;BME280;71676;50.998;7.098;2023-09-07T09:42:41;101294.09;;;29.04;34.49
76285;BME280;71676;50.998;7.098;2023-09-07T09:45:09;101291.41;;;29.46;32.39
76285;BME280;71676;50.998;7.098;2023-09-07T09:47:38;101292.19;;;29.06;32.11
76285;BME280;71676;50.998;7.098;2023-09-07T09:50:06;101286.84;;;28.78;33.40
76285;BME280;71676;50.998;7.098;2023-09-07T09:52:33;101285.25;;;28.90;34.01
76285;BME280;71676;50.998;7.098;2023-09-07T09:55:03;101286.66;;;28.81;32.50
76285;BME280;71676;50.998;7.098;2023-09-07T09:57:32;101282.19;;;28.82;34.15
76285;BME280;71676;50.998;7.098;2023-09-07T09:59:59;101279.69;;;29.50;33.48
76285;BME280;71676;50.998;7.098;2023-09-07T10:02:35;101280.78;;;29.74;31.48
76285;BME280;71676;50.998;7.098;2023-09-07T10:05:03;101281.59;;;29.89;32.98
76285;BME280;71676;50.998;7.098;2023-09-07T10:07:41;101261.72;;;30.21;32.16
76285;BME280;71676;50.998;7.098;2023-09-07T10:10:09;101272.66;;;30.17;32.45
76285;BME280;71676;50.998;7.098;2023-09-07T10:12:41;101262.81;;;30.58;32.22
76285;BME280;71676;50.998;7.098;2023-09-07T10:15:20;101259.22;;;30.45;30.49
76285;BME280;71676;50.998;7.098;2023-09-07T10:17:47;101264.66;;;30.43;30.91
76285;BME280;71676;50.998;7.098;2023-09-07T10:20:15;101267.09;;;30.46;30.04
76285;BME280;71676;50.998;7.098;2023-09-07T10:22:42;101260.91;;;30.33;29.55
76285;BME280;71676;50.998;7.098;2023-09-07T10:25:18;101258.16;;;30.99;31.72
76285;BME280;71676;50.998;7.098;2023-09-07T10:27:46;101254.31;;;31.16;30.39
76285;BME280;71676;50.998;7.098;2023-09-07T10:30:13;101253.16;;;31.43;30.29
76285;BME280;71676;50.998;7.098;2023-09-07T10:32:44;101255.47;;;31.11;28.90
76285;BME280;71676;50.998;7.098;2023-09-07T10:35:14;101255.44;;;31.49;28.64
76285;BME280;71676;50.998;7.098;2023-09-07T10:37:44;101252.97;;;32.06;29.91
76285;BME280;71676;50.998;7.098;2023-09-07T10:40:11;101251.75;;;31.99;29.10
76285;BME280;71676;50.998;7.098;2023-09-07T10:42:39;101245.59;;;32.09;28.65
76285;BME280;71676;50.998;7.098;2023-09-07T10:45:11;101242.06;;;32.32;26.95
76285;BME280;71676;50.998;7.098;2023-09-07T10:47:41;101238.91;;;32.38;27.98
76285;BME280;71676;50.998;7.098;2023-09-07T10:50:10;101233.72;;;32.13;28.77
76285;BME280;71676;50.998;7.098;2023-09-07T10:52:38;101231.84;;;32.72;28.03
76285;BME280;71676;50.998;7.098;2023-09-07T10:55:05;101216.34;;;33.10;28.23
76285;BME280;71676;50.998;7.098;2023-09-07T10:57:41;101227.56;;;32.70;27.83
76285;BME280;71676;50.998;7.098;2023-09-07T11:00:09;101215.69;;;32.85;29.39
76285;BME280;71676;50.998;7.098;2023-09-07T11:02:37;101215.38;;;33.33;27.97
76285;BME280;71676;50.998;7.098;2023-09-07T11:05:05;101212.72;;;33.33;26.72
76285;BME280;71676;50.998;7.098;2023-09-07T11:07:32;101216.28;;;33.54;28.18
76285;BME280;71676;50.998;7.098;2023-09-07T11:09:59;101217.91;;;33.46;28.68
76285;BME280;71676;50.998;7.098;2023-09-07T11:12:26;101219.16;;;33.85;27.25
76285;BME280;71676;50.998;7.098;2023-09-07T11:14:53;101214.94;;;33.60;26.67
76285;BME280;71676;50.998;7.098;2023-09-07T11:17:26;101207.66;;;33.62;26.29
76285;BME280;71676;50.998;7.098;2023-09-07T11:19:54;101188.28;;;33.81;26.98
76285;BME280;71676;50.998;7.098;2023-09-07T11:22:21;101213.75;;;34.27;26.58
76285;BME280;71676;50.998;7.098;2023-09-07T11:24:47;101197.09;;;34.24;26.61
76285;BME280;71676;50.998;7.098;2023-09-07T11:27:17;101208.13;;;34.51;26.02
76285;BME280;71676;50.998;7.098;2023-09-07T11:29:50;101216.59;;;33.83;25.99
76285;BME280;71676;50.998;7.098;2023-09-07T11:32:17;101204.28;;;34.12;25.99
76285;BME280;71676;50.998;7.098;2023-09-07T11:34:48;101206.91;;;34.03;25.68
76285;BME280;71676;50.998;7.098;2023-09-07T11:37:18;101216.88;;;34.01;24.36
76285;BME280;71676;50.998;7.098;2023-09-07T11:39:44;101204.72;;;34.49;25.81
76285;BME280;71676;50.998;7.098;2023-09-07T11:42:11;101211.41;;;34.34;25.47
76285;BME280;71676;50.998;7.098;2023-09-07T11:44:38;101199.53;;;34.16;24.92
76285;BME280;71676;50.998;7.098;2023-09-07T11:47:04;101201.16;;;33.75;25.71
76285;BME280;71676;50.998;7.098;2023-09-07T11:49:32;101196.41;;;34.11;24.95
76285;BME280;71676;50.998;7.098;2023-09-07T11:51:59;101210.63;;;34.11;25.23
76285;BME280;71676;50.998;7.098;2023-09-07T11:54:27;101197.09;;;34.24;25.83
76285;BME280;71676;50.998;7.098;2023-09-07T11:56:54;101196.09;;;34.25;24.75
76285;BME280;71676;50.998;7.098;2023-09-07T11:59:20;101187.75;;;34.39;25.92
76285;BME280;71676;50.998;7.098;2023-09-07T12:01:47;101196.28;;;35.04;25.47
76285;BME280;71676;50.998;7.098;2023-09-07T12:04:13;101190.31;;;35.40;25.00
76285;BME280;71676;50.998;7.098;2023-09-07T12:06:40;101193.88;;;35.50;24.24
76285;BME280;71676;50.998;7.098;2023-09-07T12:09:07;101188.56;;;35.69;24.57
76285;BME280;71676;50.998;7.098;2023-09-07T12:11:36;101193.44;;;35.45;23.11
76285;BME280;71676;50.998;7.098;2023-09-07T12:14:03;101194.28;;;34.96;23.52
76285;BME280;71676;50.998;7.098;2023-09-07T12:16:30;101192.59;;;35.05;23.88
76285;BME280;71676;50.998;7.098;2023-09-07T12:18:57;101188.53;;;34.71;23.86
76285;BME280;71676;50.998;7.098;2023-09-07T12:21:24;101193.44;;;34.14;24.38
76285;BME280;71676;50.998;7.098;2023-09-07T12:23:50;101184.56;;;34.24;24.89
76285;BME280;71676;50.998;7.098;2023-09-07T12:26:17;101173.75;;;34.86;24.12
76285;BME280;71676;50.998;7.098;2023-09-07T12:28:47;101167.38;;;35.07;24.59
76285;BME280;71676;50.998;7.098;2023-09-07T12:31:14;101176.06;;;35.00;23.23
76285;BME280;71676;50.998;7.098;2023-09-07T12:33:42;101163.88;;;34.77;22.41
76285;BME280;71676;50.998;7.098;2023-09-07T12:36:08;101164.63;;;34.38;24.27
76285;BME280;71676;50.998;7.098;2023-09-07T12:38:37;101160.88;;;34.50;24.20
76285;BME280;71676;50.998;7.098;2023-09-07T12:41:03;101163.44;;;34.10;23.45
76285;BME280;71676;50.998;7.098;2023-09-07T12:43:30;101170.00;;;33.54;24.75
76285;BME280;71676;50.998;7.098;2023-09-07T12:45:58;101165.50;;;33.75;24.88
76285;BME280;71676;50.998;7.098;2023-09-07T12:48:25;101160.50;;;33.93;24.65
76285;BME280;71676;50.998;7.098;2023-09-07T12:50:53;101154.13;;;33.08;25.22